McConnellstown, Pennsylvania
Current Conditions -  °F | °C
As of 8:53 AM on Saturday 22 Nov 2014 (Local Time) from KAOO Reporting Station
Clear Clear  
Wind Chill: 26°   Ceiling: Unl
Heat Index: 26°   Visibility: 10mi
Dew Point: 13°   Wind: 3mph
Humidity: 58%   Direction: 230°SW
Pressure: 30.35"   Gusts: NA
Location:  40.45°N, 78.08°W
Report Text: KAOO 221353Z AUTO 23003KT 10SM CLR M03/M11 A3035 RMK AO2 SLP302 T10331106
Loading
Personal Weather Stations






























Interactive Weather Map New forecast layout! Learn more

10-Day Weather Forecast

Advertisements
Track Severe Weather on mobile